EST,Max TemperatureF,Mean TemperatureF,Min TemperatureF,Max Dew PointF,MeanDew PointF,Min DewpointF,Max Humidity, Mean Humidity, Min Humidity, Max Sea Level PressureIn, Mean Sea Level PressureIn, Min Sea Level PressureIn, Max VisibilityMiles, Mean VisibilityMiles, Min VisibilityMiles, Max Wind SpeedMPH, Mean Wind SpeedMPH, Max Gust SpeedMPH,PrecipitationIn, CloudCover, Events, WindDirDegrees
2013-1-1,39,34,27,27,21,8,67,55,44,30.00,29.90,29.85,10,10,10,17,12,25,0.00,4,,299
2013-1-2,33,27,21,15,11,7,60,50,42,30.17,30.05,29.99,10,10,10,13,9,21,0.00,0,,314
2013-1-3,32,28,24,17,14,13,63,56,47,30.20,30.13,30.07,10,10,10,12,7,,0.00,1,,295
2013-1-4,37,32,28,22,20,18,69,56,47,30.09,30.01,29.95,10,10,10,18,10,25,0.00,2,,264
2013-1-5,43,36,28,24,20,17,79,56,40,30.28,30.19,30.01,10,10,10,17,9,28,0.00,0,,295
2013-1-6,44,38,33,34,30,24,96,76,55,30.22,30.10,29.98,10,6,2,14,6,,0.00,5,Snow,250
2013-1-7,46,37,28,29,24,20,72,59,38,30.40,30.28,30.06,10,10,10,12,5,,0.00,0,,324
2013-1-8,48,38,27,37,30,21,92,70,50,30.44,30.39,30.35,10,10,8,20,6,21,0.00,0,,246
2013-1-9,48,39,30,40,33,27,89,76,58,30.39,30.29,30.14,10,8,5,14,4,24,0.00,3,,234
2013-1-10,48,42,35,31,23,19,62,47,33,30.55,30.44,30.24,10,10,10,14,9,24,0.00,0,,328
2013-1-11,48,40,32,47,39,25,100,87,65,30.53,30.28,30.10,10,7,2,10,5,,0.39,6,Rain,107
2013-1-12,48,44,41,47,43,41,100,97,93,30.18,30.12,30.06,10,3,0,15,8,,0.02,8,Fog-Rain,28
2013-1-13,46,44,41,47,44,41,100,99,93,30.18,30.11,30.03,9,1,0,12,4,,0.00,8,Fog,182
2013-1-14,57,48,37,54,45,30,100,84,54,30.29,30.10,29.97,10,5,0,13,5,22,0.03,7,Fog-Rain,315
2013-1-15,37,36,34,32,28,25,89,72,60,30.34,30.28,30.22,10,10,8,14,8,,0.05,8,Rain,20
2013-1-16,37,35,33,36,33,30,100,93,87,30.22,29.99,29.86,9,5,2,13,7,18,0.49,7,Rain,356
2013-1-17,43,40,35,34,27,23,89,63,47,30.09,30.02,29.93,10,10,9,14,7,24,0.00,3,,319
2013-1-18,34,29,24,22,9,3,61,46,33,30.50,30.35,30.02,10,10,10,18,11,24,0.00,3,,346
2013-1-19,48,39,30,36,27,14,74,58,43,30.40,30.19,29.95,10,10,10,24,14,32,0.00,0,,225
2013-1-20,54,43,30,31,22,7,67,45,18,30.04,29.83,29.69,10,10,10,28,14,40,0.00,0,,266
2013-1-21,32,28,24,27,18,9,93,65,41,30.11,29.94,29.82,10,7,0,14,5,16,0.06,6,Fog-Snow,310
2013-1-22,27,20,12,16,0,-10,63,43,30,30.19,30.02,29.82,10,10,10,18,13,29,0.00,2,,305
2013-1-23,19,14,10,-2,-5,-9,49,41,31,30.25,30.20,30.17,10,10,10,14,9,23,0.00,1,,304
2013-1-24,24,16,8,3,-2,-5,70,46,28,30.38,30.24,30.14,10,10,10,20,7,30,0.00,1,,329
2013-1-25,24,18,12,18,10,-2,93,72,39,30.41,30.21,30.07,10,6,1,12,6,,0.04,4,Snow,286
2013-1-26,26,20,14,13,8,4,84,62,41,30.36,30.16,30.04,10,10,9,13,6,22,0.00,0,Snow,325
2013-1-27,33,24,16,11,9,5,71,52,31,30.51,30.46,30.38,10,10,10,10,5,18,0.00,0,,304
2013-1-28,54,38,21,34,28,12,100,78,28,30.49,30.22,30.01,10,4,2,15,6,21,0.14,7,Rain-Snow,229
2013-1-29,46,40,35,39,37,34,100,91,73,30.16,30.11,30.00,6,3,2,10,4,,0.05,7,Rain,98
2013-1-30,53,47,41,52,48,39,100,97,92,30.10,29.78,29.44,5,2,0,29,11,40,0.00,8,Fog-Rain,190
2013-1-31,55,42,30,55,35,7,100,68,33,29.78,29.36,29.10,10,7,2,39,25,61,0.32,5,Rain,240